sensor_id;sensor_type;location;lat;lon;timestamp;pressure;altitude;pressure_sealevel;temperature;humidity
28797;BME280;24974;54.444;18.560;2023-07-29T00:01:52;100398.53;;;17.92;71.92
28797;BME280;24974;54.444;18.560;2023-07-29T00:04:25;100398.28;;;18.20;71.22
28797;BME280;24974;54.444;18.560;2023-07-29T00:06:55;100392.38;;;18.02;71.71
28797;BME280;24974;54.444;18.560;2023-07-29T00:09:26;100391.00;;;18.35;71.10
28797;BME280;24974;54.444;18.560;2023-07-29T00:11:57;100389.16;;;18.42;70.42
28797;BME280;24974;54.444;18.560;2023-07-29T00:14:28;100389.75;;;17.90;72.33
28797;BME280;24974;54.444;18.560;2023-07-29T00:16:59;100393.75;;;18.12;72.08
28797;BME280;24974;54.444;18.560;2023-07-29T00:19:29;100390.31;;;18.18;71.78
28797;BME280;24974;54.444;18.560;2023-07-29T00:22:00;100397.50;;;18.42;71.42
28797;BME280;24974;54.444;18.560;2023-07-29T00:24:31;100393.88;;;18.38;71.58
28797;BME280;24974;54.444;18.560;2023-07-29T00:27:02;100395.28;;;18.29;72.04
28797;BME280;24974;54.444;18.560;2023-07-29T00:29:33;100387.81;;;18.56;70.92
28797;BME280;24974;54.444;18.560;2023-07-29T00:32:04;100392.13;;;18.30;72.08
28797;BME280;24974;54.444;18.560;2023-07-29T00:34:35;100396.13;;;17.91;73.57
28797;BME280;24974;54.444;18.560;2023-07-29T00:37:06;100395.81;;;18.15;72.86
28797;BME280;24974;54.444;18.560;2023-07-29T00:39:36;100398.81;;;18.49;71.58
28797;BME280;24974;54.444;18.560;2023-07-29T00:42:08;100393.81;;;18.77;70.20
28797;BME280;24974;54.444;18.560;2023-07-29T00:44:39;100399.97;;;18.25;71.86
28797;BME280;24974;54.444;18.560;2023-07-29T00:47:11;100399.56;;;18.45;71.30
28797;BME280;24974;54.444;18.560;2023-07-29T00:49:44;100398.50;;;18.73;70.40
28797;BME280;24974;54.444;18.560;2023-07-29T00:52:15;100396.25;;;18.82;70.23
28797;BME280;24974;54.444;18.560;2023-07-29T00:54:46;100395.84;;;18.80;70.52
28797;BME280;24974;54.444;18.560;2023-07-29T00:57:17;100396.63;;;18.81;70.46
28797;BME280;24974;54.444;18.560;2023-07-29T00:59:49;100399.25;;;18.93;70.04
28797;BME280;24974;54.444;18.560;2023-07-29T01:02:21;100407.75;;;19.04;69.50
28797;BME280;24974;54.444;18.560;2023-07-29T01:04:58;100402.97;;;19.04;69.71
28797;BME280;24974;54.444;18.560;2023-07-29T01:15:52;100407.00;;;18.61;71.48
28797;BME280;24974;54.444;18.560;2023-07-29T01:18:31;100398.88;;;18.52;71.42
28797;BME280;24974;54.444;18.560;2023-07-29T01:21:04;100405.47;;;18.21;72.35
28797;BME280;24974;54.444;18.560;2023-07-29T01:23:36;100407.47;;;18.01;72.65
28797;BME280;24974;54.444;18.560;2023-07-29T01:26:07;100402.50;;;18.33;71.63
28797;BME280;24974;54.444;18.560;2023-07-29T01:28:39;100409.34;;;18.16;71.84
28797;BME280;24974;54.444;18.560;2023-07-29T01:31:33;100405.09;;;18.23;71.67
28797;BME280;24974;54.444;18.560;2023-07-29T01:34:20;100409.78;;;18.38;70.94
28797;BME280;24974;54.444;18.560;2023-07-29T01:36:54;100400.91;;;18.32;71.31
28797;BME280;24974;54.444;18.560;2023-07-29T01:39:29;100411.09;;;18.25;71.50
28797;BME280;24974;54.444;18.560;2023-07-29T01:42:03;100409.50;;;18.24;71.66
28797;BME280;24974;54.444;18.560;2023-07-29T01:44:34;100414.25;;;17.84;73.18
28797;BME280;24974;54.444;18.560;2023-07-29T01:47:06;100407.97;;;18.07;72.29
28797;BME280;24974;54.444;18.560;2023-07-29T01:49:39;100412.47;;;17.57;73.39
28797;BME280;24974;54.444;18.560;2023-07-29T01:52:10;100416.03;;;17.93;72.33
28797;BME280;24974;54.444;18.560;2023-07-29T01:54:41;100415.00;;;18.01;72.03
28797;BME280;24974;54.444;18.560;2023-07-29T01:57:12;100408.69;;;18.23;71.03
28797;BME280;24974;54.444;18.560;2023-07-29T01:59:43;100406.94;;;17.76;72.31
28797;BME280;24974;54.444;18.560;2023-07-29T02:02:13;100407.81;;;18.00;71.74
28797;BME280;24974;54.444;18.560;2023-07-29T02:04:44;100414.34;;;18.07;71.42
28797;BME280;24974;54.444;18.560;2023-07-29T02:07:19;100416.16;;;18.19;70.74
28797;BME280;24974;54.444;18.560;2023-07-29T02:09:50;100417.31;;;18.37;70.38
28797;BME280;24974;54.444;18.560;2023-07-29T02:12:20;100412.63;;;18.64;69.02
28797;BME280;24974;54.444;18.560;2023-07-29T02:14:51;100420.25;;;18.25;70.70
28797;BME280;24974;54.444;18.560;2023-07-29T02:17:22;100414.09;;;18.16;70.91
28797;BME280;24974;54.444;18.560;2023-07-29T02:19:53;100412.91;;;18.36;70.33
28797;BME280;24974;54.444;18.560;2023-07-29T02:22:24;100416.50;;;18.37;70.67
28797;BME280;24974;54.444;18.560;2023-07-29T02:24:55;100418.72;;;18.51;70.39
28797;BME280;24974;54.444;18.560;2023-07-29T02:27:26;100423.34;;;18.62;69.71
28797;BME280;24974;54.444;18.560;2023-07-29T02:30:00;100430.28;;;18.72;69.27
28797;BME280;24974;54.444;18.560;2023-07-29T02:32:31;100434.09;;;18.64;69.64
28797;BME280;24974;54.444;18.560;2023-07-29T02:35:02;100433.31;;;18.44;70.38
28797;BME280;24974;54.444;18.560;2023-07-29T02:37:33;100429.50;;;18.71;69.05
28797;BME280;24974;54.444;18.560;2023-07-29T02:40:04;100432.31;;;18.33;70.62
28797;BME280;24974;54.444;18.560;2023-07-29T02:42:36;100437.44;;;18.11;71.26
28797;BME280;24974;54.444;18.560;2023-07-29T02:45:08;100437.78;;;18.49;69.84
28797;BME280;24974;54.444;18.560;2023-07-29T02:47:40;100427.06;;;18.08;71.33
28797;BME280;24974;54.444;18.560;2023-07-29T02:50:11;100442.56;;;18.09;71.26
28797;BME280;24974;54.444;18.560;2023-07-29T02:52:42;100443.53;;;18.17;70.88
28797;BME280;24974;54.444;18.560;2023-07-29T02:55:13;100437.69;;;17.68;72.49
28797;BME280;24974;54.444;18.560;2023-07-29T02:57:44;100437.78;;;17.71;72.62
28797;BME280;24974;54.444;18.560;2023-07-29T03:00:15;100440.09;;;17.85;72.05
28797;BME280;24974;54.444;18.560;2023-07-29T03:02:45;100440.16;;;17.88;71.89
28797;BME280;24974;54.444;18.560;2023-07-29T03:05:16;100440.28;;;17.96;71.43
28797;BME280;24974;54.444;18.560;2023-07-29T03:07:47;100448.06;;;17.86;71.92
28797;BME280;24974;54.444;18.560;2023-07-29T03:10:18;100452.22;;;17.61;72.57
28797;BME280;24974;54.444;18.560;2023-07-29T03:12:49;100446.84;;;17.68;72.29
28797;BME280;24974;54.444;18.560;2023-07-29T03:15:23;100448.94;;;18.10;70.89
28797;BME280;24974;54.444;18.560;2023-07-29T03:17:55;100452.84;;;18.05;70.64
28797;BME280;24974;54.444;18.560;2023-07-29T03:20:26;100452.81;;;17.51;72.53
28797;BME280;24974;54.444;18.560;2023-07-29T03:22:57;100449.38;;;18.12;70.45
28797;BME280;24974;54.444;18.560;2023-07-29T03:25:28;100445.63;;;17.85;71.01
28797;BME280;24974;54.444;18.560;2023-07-29T03:28:00;100449.84;;;18.14;70.36
28797;BME280;24974;54.444;18.560;2023-07-29T03:30:30;100452.69;;;18.37;69.41
28797;BME280;24974;54.444;18.560;2023-07-29T03:33:02;100455.69;;;17.89;71.17
28797;BME280;24974;54.444;18.560;2023-07-29T03:35:33;100463.06;;;17.66;71.59
28797;BME280;24974;54.444;18.560;2023-07-29T03:38:03;100464.78;;;17.55;72.31
28797;BME280;24974;54.444;18.560;2023-07-29T03:40:35;100460.00;;;17.36;72.40
28797;BME280;24974;54.444;18.560;2023-07-29T03:43:06;100452.66;;;17.12;73.57
28797;BME280;24974;54.444;18.560;2023-07-29T03:45:37;100456.50;;;17.23;73.63
28797;BME280;24974;54.444;18.560;2023-07-29T03:48:09;100466.00;;;17.06;73.91
28797;BME280;24974;54.444;18.560;2023-07-29T03:50:40;100462.34;;;17.34;73.37
28797;BME280;24974;54.444;18.560;2023-07-29T03:53:11;100465.75;;;17.12;73.96
28797;BME280;24974;54.444;18.560;2023-07-29T03:55:42;100468.09;;;17.76;71.59
28797;BME280;24974;54.444;18.560;2023-07-29T03:58:13;100473.91;;;17.71;72.14
28797;BME280;24974;54.444;18.560;2023-07-29T04:00:43;100472.31;;;18.05;70.54
28797;BME280;24974;54.444;18.560;2023-07-29T04:03:14;100476.22;;;17.85;71.47
28797;BME280;24974;54.444;18.560;2023-07-29T04:05:45;100474.69;;;17.87;71.24
28797;BME280;24974;54.444;18.560;2023-07-29T04:08:16;100469.44;;;18.02;71.11
28797;BME280;24974;54.444;18.560;2023-07-29T04:10:47;100475.97;;;18.29;69.83
28797;BME280;24974;54.444;18.560;2023-07-29T04:13:18;100478.00;;;18.12;70.26
28797;BME280;24974;54.444;18.560;2023-07-29T04:15:49;100485.81;;;18.26;70.39
28797;BME280;24974;54.444;18.560;2023-07-29T04:18:20;100484.56;;;18.62;68.76
28797;BME280;24974;54.444;18.560;2023-07-29T04:20:52;100484.28;;;18.09;70.43
28797;BME280;24974;54.444;18.560;2023-07-29T04:23:23;100489.91;;;17.94;71.19
28797;BME280;24974;54.444;18.560;2023-07-29T04:25:54;100488.31;;;18.51;69.24
28797;BME280;24974;54.444;18.560;2023-07-29T04:28:25;100484.50;;;18.20;69.96
28797;BME280;24974;54.444;18.560;2023-07-29T04:30:56;100484.88;;;18.38;69.75
28797;BME280;24974;54.444;18.560;2023-07-29T04:33:28;100488.63;;;18.07;70.53
28797;BME280;24974;54.444;18.560;2023-07-29T04:35:59;100490.16;;;18.24;70.35
28797;BME280;24974;54.444;18.560;2023-07-29T04:38:32;100489.19;;;18.55;69.60
28797;BME280;24974;54.444;18.560;2023-07-29T04:41:05;100490.28;;;17.92;71.51
28797;BME280;24974;54.444;18.560;2023-07-29T04:43:38;100487.94;;;18.52;69.48
28797;BME280;24974;54.444;18.560;2023-07-29T04:46:09;100487.63;;;18.57;69.11
28797;BME280;24974;54.444;18.560;2023-07-29T04:48:40;100481.50;;;18.67;68.62
28797;BME280;24974;54.444;18.560;2023-07-29T04:51:11;100480.16;;;18.81;68.42
28797;BME280;24974;54.444;18.560;2023-07-29T04:53:44;100483.38;;;18.83;68.58
28797;BME280;24974;54.444;18.560;2023-07-29T04:56:15;100484.38;;;18.32;69.68
28797;BME280;24974;54.444;18.560;2023-07-29T04:58:46;100497.47;;;18.32;70.17
28797;BME280;24974;54.444;18.560;2023-07-29T05:01:16;100494.38;;;18.98;67.90
28797;BME280;24974;54.444;18.560;2023-07-29T05:03:47;100494.56;;;19.32;66.61
28797;BME280;24974;54.444;18.560;2023-07-29T05:06:18;100490.91;;;19.28;67.16
28797;BME280;24974;54.444;18.560;2023-07-29T05:08:49;100484.50;;;19.50;66.60
28797;BME280;24974;54.444;18.560;2023-07-29T05:11:20;100493.03;;;20.18;63.94
28797;BME280;24974;54.444;18.560;2023-07-29T05:13:51;100497.78;;;20.14;63.73
28797;BME280;24974;54.444;18.560;2023-07-29T05:16:22;100503.50;;;20.54;62.86
28797;BME280;24974;54.444;18.560;2023-07-29T05:18:53;100501.91;;;20.23;63.14
28797;BME280;24974;54.444;18.560;2023-07-29T05:21:24;100496.34;;;19.97;64.78
28797;BME280;24974;54.444;18.560;2023-07-29T05:23:54;100498.91;;;20.39;63.60
28797;BME280;24974;54.444;18.560;2023-07-29T05:26:25;100500.03;;;20.34;63.53
28797;BME280;24974;54.444;18.560;2023-07-29T05:28:57;100508.81;;;20.66;62.52
28797;BME280;24974;54.444;18.560;2023-07-29T05:31:27;100501.91;;;20.94;61.48
28797;BME280;24974;54.444;18.560;2023-07-29T05:33:59;100501.38;;;20.78;62.15
28797;BME280;24974;54.444;18.560;2023-07-29T05:36:29;100495.63;;;21.04;61.30
28797;BME280;24974;54.444;18.560;2023-07-29T05:39:00;100502.56;;;21.21;60.40
28797;BME280;24974;54.444;18.560;2023-07-29T05:41:31;100495.84;;;21.84;59.13
28797;BME280;24974;54.444;18.560;2023-07-29T05:44:02;100497.72;;;21.62;59.79
28797;BME280;24974;54.444;18.560;2023-07-29T05:46:33;100505.69;;;21.60;59.36
28797;BME280;24974;54.444;18.560;2023-07-29T05:49:04;100509.75;;;21.66;59.27
28797;BME280;24974;54.444;18.560;2023-07-29T05:51:35;100513.28;;;22.22;57.68
28797;BME280;24974;54.444;18.560;2023-07-29T05:54:06;100507.16;;;22.02;57.70
28797;BME280;24974;54.444;18.560;2023-07-29T05:56:36;100508.50;;;22.26;57.28
28797;BME280;24974;54.444;18.560;2023-07-29T05:59:07;100517.44;;;21.84;58.44
28797;BME280;24974;54.444;18.560;2023-07-29T06:01:39;100523.28;;;22.23;57.69
28797;BME280;24974;54.444;18.560;2023-07-29T06:04:10;100518.69;;;21.97;57.54
28797;BME280;24974;54.444;18.560;2023-07-29T06:06:41;100520.34;;;21.98;58.29
28797;BME280;24974;54.444;18.560;2023-07-29T06:09:12;100524.25;;;21.86;58.33
28797;BME280;24974;54.444;18.560;2023-07-29T06:11:43;100532.16;;;22.43;57.08
28797;BME280;24974;54.444;18.560;2023-07-29T06:14:14;100532.28;;;22.78;56.21
28797;BME280;24974;54.444;18.560;2023-07-29T06:16:45;100543.06;;;22.62;56.40
28797;BME280;24974;54.444;18.560;2023-07-29T06:19:16;100533.88;;;22.72;55.75
28797;BME280;24974;54.444;18.560;2023-07-29T06:21:48;100530.47;;;22.24;57.12
28797;BME280;24974;54.444;18.560;2023-07-29T06:24:19;100538.63;;;22.61;55.48
28797;BME280;24974;54.444;18.560;2023-07-29T06:26:50;100530.38;;;23.14;53.65
28797;BME280;24974;54.444;18.560;2023-07-29T06:29:20;100528.75;;;22.96;54.04
28797;BME280;24974;54.444;18.560;2023-07-29T06:31:51;100533.50;;;22.81;53.14
28797;BME280;24974;54.444;18.560;2023-07-29T06:34:22;100527.97;;;23.13;50.39
28797;BME280;24974;54.444;18.560;2023-07-29T06:36:53;100531.19;;;23.51;49.74
28797;BME280;24974;54.444;18.560;2023-07-29T06:39:24;100521.13;;;23.96;49.00
28797;BME280;24974;54.444;18.560;2023-07-29T06:41:54;100516.75;;;22.95;50.66
28797;BME280;24974;54.444;18.560;2023-07-29T06:44:25;100525.56;;;23.04;51.62
28797;BME280;24974;54.444;18.560;2023-07-29T06:46:58;100526.78;;;23.42;49.54
28797;BME280;24974;54.444;18.560;2023-07-29T06:49:28;100529.19;;;23.30;50.27
28797;BME280;24974;54.444;18.560;2023-07-29T06:52:00;100531.19;;;23.22;50.85
28797;BME280;24974;54.444;18.560;2023-07-29T06:54:31;100521.47;;;22.84;50.92
28797;BME280;24974;54.444;18.560;2023-07-29T06:57:02;100520.72;;;22.91;50.85
28797;BME280;24974;54.444;18.560;2023-07-29T06:59:33;100519.16;;;23.14;49.37
28797;BME280;24974;54.444;18.560;2023-07-29T07:02:04;100515.97;;;23.27;49.14
28797;BME280;24974;54.444;18.560;2023-07-29T07:04:35;100515.16;;;23.72;47.96
28797;BME280;24974;54.444;18.560;2023-07-29T07:07:06;100516.75;;;23.91;47.45
28797;BME280;24974;54.444;18.560;2023-07-29T07:09:37;100508.72;;;23.93;46.85
28797;BME280;24974;54.444;18.560;2023-07-29T07:12:07;100517.56;;;23.31;46.46
28797;BME280;24974;54.444;18.560;2023-07-29T07:14:38;100509.56;;;23.76;45.83
28797;BME280;24974;54.444;18.560;2023-07-29T07:17:09;100519.16;;;23.71;44.90
28797;BME280;24974;54.444;18.560;2023-07-29T07:19:40;100509.81;;;24.24;44.67
28797;BME280;24974;54.444;18.560;2023-07-29T07:22:11;100512.66;;;24.17;45.30
28797;BME280;24974;54.444;18.560;2023-07-29T07:24:42;100517.41;;;24.38;44.63
28797;BME280;24974;54.444;18.560;2023-07-29T07:27:12;100519.28;;;24.66;43.27
28797;BME280;24974;54.444;18.560;2023-07-29T07:29:43;100514.28;;;24.15;43.00
28797;BME280;24974;54.444;18.560;2023-07-29T07:32:14;100522.59;;;24.43;42.63
28797;BME280;24974;54.444;18.560;2023-07-29T07:34:45;100521.81;;;24.46;42.73
28797;BME280;24974;54.444;18.560;2023-07-29T07:37:16;100514.53;;;24.52;42.99
28797;BME280;24974;54.444;18.560;2023-07-29T07:39:47;100511.06;;;24.16;43.12
28797;BME280;24974;54.444;18.560;2023-07-29T07:42:17;100504.19;;;24.32;42.85
28797;BME280;24974;54.444;18.560;2023-07-29T07:44:48;100506.22;;;24.24;43.19
28797;BME280;24974;54.444;18.560;2023-07-29T07:47:19;100507.72;;;24.50;42.31
28797;BME280;24974;54.444;18.560;2023-07-29T07:49:50;100505.78;;;25.02;41.43
28797;BME280;24974;54.444;18.560;2023-07-29T07:52:21;100503.22;;;25.29;40.87
28797;BME280;24974;54.444;18.560;2023-07-29T07:54:52;100504.44;;;25.28;41.73
28797;BME280;24974;54.444;18.560;2023-07-29T07:57:24;100494.91;;;24.45;41.78
28797;BME280;24974;54.444;18.560;2023-07-29T07:59:54;100499.34;;;25.13;40.38
28797;BME280;24974;54.444;18.560;2023-07-29T08:02:25;100500.53;;;25.60;38.92
28797;BME280;24974;54.444;18.560;2023-07-29T08:04:56;100502.25;;;25.91;38.97
28797;BME280;24974;54.444;18.560;2023-07-29T08:07:27;100513.25;;;25.30;39.99
28797;BME280;24974;54.444;18.560;2023-07-29T08:09:58;100503.84;;;25.51;39.15
28797;BME280;24974;54.444;18.560;2023-07-29T08:12:28;100506.25;;;25.49;39.27
28797;BME280;24974;54.444;18.560;2023-07-29T08:14:59;100500.13;;;25.61;39.17
28797;BME280;24974;54.444;18.560;2023-07-29T08:17:30;100494.19;;;25.93;39.02
28797;BME280;24974;54.444;18.560;2023-07-29T08:20:01;100485.63;;;26.35;38.81
28797;BME280;24974;54.444;18.560;2023-07-29T08:22:32;100485.09;;;26.13;38.58
28797;BME280;24974;54.444;18.560;2023-07-29T08:25:03;100486.00;;;26.37;38.01
28797;BME280;24974;54.444;18.560;2023-07-29T08:27:34;100487.03;;;26.54;38.05
28797;BME280;24974;54.444;18.560;2023-07-29T08:30:06;100491.81;;;26.57;37.20
28797;BME280;24974;54.444;18.560;2023-07-29T08:32:37;100477.19;;;25.63;37.20
28797;BME280;24974;54.444;18.560;2023-07-29T08:35:08;100482.50;;;25.54;38.19
28797;BME280;24974;54.444;18.560;2023-07-29T08:37:39;100493.53;;;25.34;37.45
28797;BME280;24974;54.444;18.560;2023-07-29T08:40:10;100489.44;;;25.42;37.46
28797;BME280;24974;54.444;18.560;2023-07-29T08:42:41;100477.94;;;26.08;36.42
28797;BME280;24974;54.444;18.560;2023-07-29T08:45:17;100480.78;;;25.63;37.00
28797;BME280;24974;54.444;18.560;2023-07-29T08:47:50;100464.81;;;25.12;36.17
28797;BME280;24974;54.444;18.560;2023-07-29T08:50:24;100478.47;;;25.55;35.87
28797;BME280;24974;54.444;18.560;2023-07-29T08:52:56;100473.19;;;26.02;36.01
28797;BME280;24974;54.444;18.560;2023-07-29T08:55:28;100482.19;;;26.20;34.78
28797;BME280;24974;54.444;18.560;2023-07-29T08:58:00;100469.00;;;26.47;34.56
28797;BME280;24974;54.444;18.560;2023-07-29T09:00:31;100469.16;;;27.18;33.38
28797;BME280;24974;54.444;18.560;2023-07-29T09:03:02;100480.91;;;26.86;34.84
28797;BME280;24974;54.444;18.560;2023-07-29T09:05:36;100487.66;;;26.34;34.21
28797;BME280;24974;54.444;18.560;2023-07-29T09:08:08;100484.47;;;25.98;35.52
28797;BME280;24974;54.444;18.560;2023-07-29T09:10:39;100481.00;;;26.52;34.09
28797;BME280;24974;54.444;18.560;2023-07-29T09:13:10;100475.63;;;26.64;33.80
28797;BME280;24974;54.444;18.560;2023-07-29T09:15:41;100471.06;;;26.70;34.36
28797;BME280;24974;54.444;18.560;2023-07-29T09:18:19;100469.81;;;28.15;32.17
28797;BME280;24974;54.444;18.560;2023-07-29T09:20:50;100467.94;;;27.42;34.12
28797;BME280;24974;54.444;18.560;2023-07-29T09:23:21;100462.59;;;27.48;34.77
28797;BME280;24974;54.444;18.560;2023-07-29T09:26:01;100471.19;;;27.17;35.07
28797;BME280;24974;54.444;18.560;2023-07-29T09:28:39;100457.34;;;28.33;32.40
28797;BME280;24974;54.444;18.560;2023-07-29T09:31:20;100462.91;;;27.77;33.34
28797;BME280;24974;54.444;18.560;2023-07-29T09:33:58;100471.09;;;26.97;33.52
28797;BME280;24974;54.444;18.560;2023-07-29T09:36:33;100466.28;;;27.21;33.71
28797;BME280;24974;54.444;18.560;2023-07-29T09:39:11;100475.69;;;27.38;32.45
28797;BME280;24974;54.444;18.560;2023-07-29T09:41:47;100458.66;;;27.42;31.47
28797;BME280;24974;54.444;18.560;2023-07-29T09:44:18;100471.16;;;27.64;31.49
28797;BME280;24974;54.444;18.560;2023-07-29T09:46:49;100462.38;;;27.39;31.84
28797;BME280;24974;54.444;18.560;2023-07-29T09:49:22;100456.25;;;27.64;31.61
28797;BME280;24974;54.444;18.560;2023-07-29T09:51:55;100470.84;;;27.58;30.84
28797;BME280;24974;54.444;18.560;2023-07-29T09:54:26;100460.34;;;27.39;31.18
28797;BME280;24974;54.444;18.560;2023-07-29T09:56:57;100466.09;;;26.82;31.76
28797;BME280;24974;54.444;18.560;2023-07-29T09:59:34;100455.66;;;27.96;30.21
28797;BME280;24974;54.444;18.560;2023-07-29T10:02:13;100456.22;;;27.67;30.43
28797;BME280;24974;54.444;18.560;2023-07-29T10:04:45;100463.94;;;27.40;30.07
28797;BME280;24974;54.444;18.560;2023-07-29T10:07:16;100457.16;;;27.14;30.15
28797;BME280;24974;54.444;18.560;2023-07-29T10:09:49;100462.69;;;26.67;31.85
28797;BME280;24974;54.444;18.560;2023-07-29T10:12:21;100452.31;;;27.14;31.14
28797;BME280;24974;54.444;18.560;2023-07-29T10:14:53;100447.16;;;26.82;32.15
28797;BME280;24974;54.444;18.560;2023-07-29T10:17:24;100447.09;;;28.39;30.27
28797;BME280;24974;54.444;18.560;2023-07-29T10:19:56;100447.34;;;27.88;30.82
28797;BME280;24974;54.444;18.560;2023-07-29T10:22:33;100444.38;;;28.35;29.54
28797;BME280;24974;54.444;18.560;2023-07-29T10:25:09;100439.28;;;28.99;29.40
28797;BME280;24974;54.444;18.560;2023-07-29T10:27:58;100445.91;;;28.00;29.68
28797;BME280;24974;54.444;18.560;2023-07-29T10:30:31;100431.38;;;28.38;29.53
28797;BME280;24974;54.444;18.560;2023-07-29T10:33:03;100437.03;;;28.74;28.81
28797;BME280;24974;54.444;18.560;2023-07-29T10:35:35;100432.06;;;29.27;28.89
28797;BME280;24974;54.444;18.560;2023-07-29T10:38:07;100441.34;;;29.60;28.50
28797;BME280;24974;54.444;18.560;2023-07-29T10:40:47;100444.78;;;29.68;28.78
28797;BME280;24974;54.444;18.560;2023-07-29T10:46:19;100446.56;;;29.62;28.30
28797;BME280;24974;54.444;18.560;2023-07-29T10:51:35;100426.97;;;31.02;26.28
28797;BME280;24974;54.444;18.560;2023-07-29T10:54:11;100428.13;;;31.52;24.95
28797;BME280;24974;54.444;18.560;2023-07-29T10:56:51;100436.63;;;31.04;26.40
28797;BME280;24974;54.444;18.560;2023-07-29T11:01:56;100420.31;;;31.99;24.12
28797;BME280;24974;54.444;18.560;2023-07-29T11:04:29;100417.28;;;32.47;23.41
28797;BME280;24974;54.444;18.560;2023-07-29T11:09:42;100414.50;;;30.48;24.83
28797;BME280;24974;54.444;18.560;2023-07-29T11:15:15;100414.50;;;31.81;24.30
28797;BME280;24974;54.444;18.560;2023-07-29T11:17:51;100406.03;;;31.68;23.83
28797;BME280;24974;54.444;18.560;2023-07-29T11:20:28;100418.44;;;31.14;24.22
28797;BME280;24974;54.444;18.560;2023-07-29T11:23:03;100396.06;;;31.29;23.19
28797;BME280;24974;54.444;18.560;2023-07-29T11:25:34;100403.72;;;32.91;22.10
28797;BME280;24974;54.444;18.560;2023-07-29T11:28:06;100394.88;;;32.98;22.56
28797;BME280;24974;54.444;18.560;2023-07-29T11:30:39;100407.88;;;33.36;22.90
28797;BME280;24974;54.444;18.560;2023-07-29T11:33:10;100401.13;;;32.13;23.52
28797;BME280;24974;54.444;18.560;2023-07-29T11:35:41;100379.28;;;31.44;24.68
28797;BME280;24974;54.444;18.560;2023-07-29T11:38:17;100394.78;;;30.70;25.38
28797;BME280;24974;54.444;18.560;2023-07-29T11:40:59;100398.56;;;32.06;24.22
28797;BME280;24974;54.444;18.560;2023-07-29T11:43:35;100395.50;;;32.93;23.25
28797;BME280;24974;54.444;18.560;2023-07-29T11:46:05;100394.56;;;32.25;24.17
28797;BME280;24974;54.444;18.560;2023-07-29T11:48:36;100396.84;;;31.17;25.31
28797;BME280;24974;54.444;18.560;2023-07-29T11:51:07;100398.63;;;31.71;24.17
28797;BME280;24974;54.444;18.560;2023-07-29T11:53:38;100392.97;;;32.24;23.17
28797;BME280;24974;54.444;18.560;2023-07-29T11:56:09;100380.78;;;32.45;23.48
28797;BME280;24974;54.444;18.560;2023-07-29T11:58:39;100385.41;;;31.08;25.48
28797;BME280;24974;54.444;18.560;2023-07-29T12:01:10;100372.28;;;31.36;25.33
28797;BME280;24974;54.444;18.560;2023-07-29T12:03:42;100372.53;;;31.85;25.07
28797;BME280;24974;54.444;18.560;2023-07-29T12:06:13;100375.47;;;31.60;25.17
28797;BME280;24974;54.444;18.560;2023-07-29T12:08:44;100374.69;;;30.39;26.79
28797;BME280;24974;54.444;18.560;2023-07-29T12:11:15;100372.22;;;30.67;26.99
28797;BME280;24974;54.444;18.560;2023-07-29T12:13:46;100364.19;;;31.47;24.97
28797;BME280;24974;54.444;18.560;2023-07-29T12:16:17;100357.81;;;31.08;25.65
28797;BME280;24974;54.444;18.560;2023-07-29T12:18:50;100363.41;;;31.68;25.68
28797;BME280;24974;54.444;18.560;2023-07-29T12:21:21;100361.09;;;33.46;24.13
28797;BME280;24974;54.444;18.560;2023-07-29T12:23:52;100345.41;;;33.32;23.71
28797;BME280;24974;54.444;18.560;2023-07-29T12:26:27;100350.16;;;32.49;24.76
28797;BME280;24974;54.444;18.560;2023-07-29T12:28:59;100346.19;;;31.85;25.69
28797;BME280;24974;54.444;18.560;2023-07-29T12:31:33;100348.22;;;31.62;25.76
28797;BME280;24974;54.444;18.560;2023-07-29T12:34:08;100339.91;;;31.99;25.62
28797;BME280;24974;54.444;18.560;2023-07-29T12:36:43;100343.84;;;32.64;25.05
28797;BME280;24974;54.444;18.560;2023-07-29T12:39:28;100337.81;;;32.21;25.39
28797;BME280;24974;54.444;18.560;2023-07-29T12:42:00;100330.09;;;34.51;23.49
28797;BME280;24974;54.444;18.560;2023-07-29T12:44:33;100330.69;;;33.43;24.11
28797;BME280;24974;54.444;18.560;2023-07-29T12:47:06;100334.19;;;32.61;24.61
28797;BME280;24974;54.444;18.560;2023-07-29T12:49:37;100332.75;;;31.41;26.04
28797;BME280;24974;54.444;18.560;2023-07-29T12:52:07;100327.63;;;30.29;27.86
28797;BME280;24974;54.444;18.560;2023-07-29T12:54:38;100330.78;;;30.31;28.21
28797;BME280;24974;54.444;18.560;2023-07-29T12:57:10;100336.38;;;30.34;28.91
28797;BME280;24974;54.444;18.560;2023-07-29T12:59:41;100319.66;;;31.09;27.89
28797;BME280;24974;54.444;18.560;2023-07-29T13:02:12;100320.84;;;30.99;28.74
28797;BME280;24974;54.444;18.560;2023-07-29T13:04:43;100331.34;;;31.24;28.37
28797;BME280;24974;54.444;18.560;2023-07-29T13:07:14;100327.44;;;29.69;30.26
28797;BME280;24974;54.444;18.560;2023-07-29T13:09:45;100328.44;;;29.62;29.68
28797;BME280;24974;54.444;18.560;2023-07-29T13:12:15;100326.59;;;28.29;31.71
28797;BME280;24974;54.444;18.560;2023-07-29T13:14:46;100322.75;;;28.88;31.27
28797;BME280;24974;54.444;18.560;2023-07-29T13:17:17;100330.19;;;28.65;32.32
28797;BME280;24974;54.444;18.560;2023-07-29T13:19:48;100321.31;;;29.12;32.34
28797;BME280;24974;54.444;18.560;2023-07-29T13:22:20;100319.13;;;28.55;33.43
28797;BME280;24974;54.444;18.560;2023-07-29T13:24:51;100319.13;;;28.55;33.67
28797;BME280;24974;54.444;18.560;2023-07-29T13:27:21;100313.41;;;28.22;34.39